Aérodrome :
LOGIN :

S'inscrire | Disclaimer

   EN    FR    IT 

 










Légende :    VFR   VFR Marginal   IFR   IFR Intensif   IFR Très Intensif
Visi : 
Plafond : 
>= 8 km
>= 3000ft
5 à 8 km
1000 à 3000 ft
1500m à 5 km
500 à 1000 ft
800 à 1500m
200 à 500 ft
< 800m
< 200 ft
Symboles :   Orages  Brouillard  Fortes neiges  Fortes précipitations  Vent > 20 kt
SIGMETs :   Divers  Orages  Givrage  Turbulence  Onde Orograph.  Cendres Volcan.







- Altitude de l'aérodrome : 19 ft
- Code IATA : DJE


DTTJ - Djerba Zarzis

DERNIER METAR :
  • 241330Z 01004KT 320V070 9999 FEW023 30/18 Q1018 NOSIG

METARs EXPIRÉS :
  • 241300Z 36006KT 300V060 9999 FEW023 29/19 Q1018 NOSIG
  • 241230Z 34006KT 300V030 9999 FEW023 29/18 Q1018 NOSIG
  • 241200Z 34006KT 300V020 9999 FEW023 29/19 Q1019 NOSIG
  • 241130Z 35006KT 300V020 9999 FEW023 29/18 Q1019 NOSIG
  • 241100Z 34006KT 300V020 CAVOK 29/19 Q1019 NOSIG

TAF TAF DTTJ
Valide du 24 à 12h jusqu'au 25 à 12h UTC


241100Z 2412/2512 36008KT CAVOK
BECMG 2414/2416 10010KT 9999 FEW020
BECMG 2503/2505 03010KT
Pas de NOTAMs connus pour ce terrain.



MET'MAP, la Météo Aéronautique d'un coup d'oeil ! - Copyright ORBIFLY Décembre 2007 - Disclaimer

ORBIFLY MET'MAP TEAM :

Programmation & Développement : Alexandra Zaïnal
Conception & Développement : Baudouin d'Aumeries
Co-Programmation & Développement : Marc-Olivier Méhu
Soutien technique & logistique : Manuel Goepfert

Contact : metmap@orbifly.com




SOURCES & CREDITS :

   NOAA